Time;durP1;ratioP1;P1;durP2;ratioP2;P2;SDS_P1;SDS_P2;PMS_P1;PMS_P2;Temp;Humidity;BMP_temperature;BMP_pressure;BME280_temperature;BME280_humidity;BME280_pressure;Samples;Min_cycle;Max_cycle;Signal;HPM_P1;HPM_P2
2021/09/20 00:00:10;;;;;;;;;1.00;1.00;;;;;16.57;77.10;101252.06;5079687;28;45562;-76
2021/09/20 00:02:35;;;;;;;;;3.00;3.00;;;;;16.53;77.42;101249.78;5079084;28;45463;-76
2021/09/20 00:05:01;;;;;;;;;2.67;2.00;;;;;16.50;77.02;101246.69;5079168;28;45309;-76
2021/09/20 00:07:26;;;;;;;;;2.00;2.00;;;;;16.42;77.11;101245.00;5079227;28;45270;-76
2021/09/20 00:09:52;;;;;;;;;2.00;1.00;;;;;16.38;77.41;101246.44;5079503;28;45226;-75
2021/09/20 00:12:17;;;;;;;;;1.33;1.33;;;;;16.35;77.40;101254.91;5079166;28;45173;-76
2021/09/20 00:14:42;;;;;;;;;2.00;2.00;;;;;16.29;77.26;101251.16;5077876;28;48266;-75
2021/09/20 00:17:08;;;;;;;;;2.00;2.00;;;;;16.31;77.68;101245.59;5079112;28;45256;-76
2021/09/20 00:19:33;;;;;;;;;2.67;1.00;;;;;16.29;77.31;101243.13;5079122;28;45243;-75
2021/09/20 00:21:59;;;;;;;;;5.00;3.00;;;;;16.28;77.51;101253.00;5081836;28;45290;-75
2021/09/20 00:24:24;;;;;;;;;1.67;1.00;;;;;16.24;77.33;101248.25;5082609;28;45188;-75
2021/09/20 00:26:50;;;;;;;;;3.00;3.00;;;;;16.19;77.77;101245.34;5082483;28;45342;-76
2021/09/20 00:29:15;;;;;;;;;1.67;1.00;;;;;16.12;78.03;101253.34;5082580;28;45307;-75
2021/09/20 00:31:40;;;;;;;;;2.67;2.00;;;;;16.05;77.62;101252.50;5062202;28;45279;-76
2021/09/20 00:34:06;;;;;;;;;1.00;0.00;;;;;16.00;77.60;101251.25;5062093;28;45299;-75
2021/09/20 00:36:31;;;;;;;;;2.67;2.33;;;;;15.96;78.22;101257.16;5061469;28;45338;-75
2021/09/20 00:38:57;;;;;;;;;2.67;2.67;;;;;15.84;77.88;101255.03;5062086;28;45359;-76
2021/09/20 00:41:22;;;;;;;;;2.67;2.00;;;;;15.85;78.54;101258.53;5062188;28;45237;-75
2021/09/20 00:43:48;;;;;;;;;2.00;2.00;;;;;15.78;78.50;101258.50;5061700;28;45318;-75
2021/09/20 00:46:13;;;;;;;;;1.67;1.00;;;;;15.73;78.72;101250.22;5061729;28;45346;-75
2021/09/20 00:48:39;;;;;;;;;2.00;1.00;;;;;15.70;78.04;101258.63;5060703;28;45341;-75
2021/09/20 00:51:04;;;;;;;;;1.00;1.00;;;;;15.70;78.74;101258.63;5061659;28;45318;-76
2021/09/20 00:53:30;;;;;;;;;2.00;2.00;;;;;15.65;78.92;101256.53;5061513;28;45245;-75
2021/09/20 00:55:55;;;;;;;;;2.00;0.00;;;;;15.68;78.86;101258.84;5061677;28;45177;-76
2021/09/20 00:58:21;;;;;;;;;2.67;2.67;;;;;15.70;79.65;101258.63;5061739;28;45269;-76
2021/09/20 01:00:46;;;;;;;;;1.67;1.67;;;;;15.71;79.24;101254.97;5061630;28;45185;-75
2021/09/20 01:03:12;;;;;;;;;3.00;3.00;;;;;15.73;79.42;101259.09;5060261;28;46826;-75
2021/09/20 01:05:37;;;;;;;;;3.00;2.00;;;;;15.74;79.04;101259.91;5061483;28;45173;-76
2021/09/20 01:08:03;;;;;;;;;5.67;5.67;;;;;15.75;79.31;101266.94;5061581;28;45269;-75
2021/09/20 01:10:29;;;;;;;;;5.67;5.33;;;;;15.71;79.00;101249.59;5061454;28;45479;-75
2021/09/20 01:12:54;;;;;;;;;10.00;10.00;;;;;15.69;79.39;101260.50;5061569;28;45323;-76
2021/09/20 01:15:19;;;;;;;;;7.67;7.67;;;;;15.65;79.28;101251.19;5061507;28;45564;-76
2021/09/20 01:17:45;;;;;;;;;10.67;10.67;;;;;15.68;79.09;101249.97;5060013;28;45366;-76
2021/09/20 01:20:12;;;;;;;;;7.00;7.00;;;;;15.69;78.85;101257.81;5059744;28;46182;-75
2021/09/20 01:22:38;;;;;;;;;8.00;8.00;;;;;15.68;79.39;101253.47;5061163;28;45333;-75
2021/09/20 01:25:09;;;;;;;;;9.67;7.00;;;;;15.70;79.23;101251.44;5059939;28;45709;-76
2021/09/20 01:27:34;;;;;;;;;11.00;11.00;;;;;15.70;78.91;101253.28;5059889;28;45255;-75
2021/09/20 01:30:00;;;;;;;;;9.00;9.00;;;;;15.68;79.01;101245.44;5066890;28;45387;-76
2021/09/20 01:32:25;;;;;;;;;5.67;4.33;;;;;15.68;79.22;101244.63;5080198;27;45422;-75
2021/09/20 01:34:51;;;;;;;;;1.33;1.33;;;;;15.67;79.04;101249.16;5081365;28;45219;-76
2021/09/20 01:37:16;;;;;;;;;2.00;2.00;;;;;15.66;78.87;101250.19;5081126;28;45325;-75
2021/09/20 01:39:42;;;;;;;;;2.33;2.33;;;;;15.65;79.21;101245.81;5080095;28;47290;-75
2021/09/20 01:42:08;;;;;;;;;3.00;3.00;;;;;15.63;78.85;101242.53;5081438;28;45903;-75
2021/09/20 01:44:35;;;;;;;;;1.33;1.33;;;;;15.63;79.34;101242.53;5081258;28;45408;-75
2021/09/20 01:47:01;;;;;;;;;3.00;3.00;;;;;15.59;79.11;101238.59;5081114;28;45389;-76
2021/09/20 01:49:27;;;;;;;;;1.67;1.67;;;;;15.64;79.45;101246.84;5081208;28;45259;-75
2021/09/20 01:51:54;;;;;;;;;1.67;1.67;;;;;15.62;79.02;101243.53;5080884;28;46088;-76
2021/09/20 01:54:19;;;;;;;;;3.00;3.00;;;;;15.63;79.33;101237.97;5081098;28;45216;-76
2021/09/20 01:56:45;;;;;;;;;2.67;2.67;;;;;15.68;78.88;101239.28;5081132;28;45414;-75
2021/09/20 01:59:11;;;;;;;;;2.67;2.00;;;;;15.69;78.93;101231.03;5081065;28;45531;-76
2021/09/20 02:01:36;;;;;;;;;1.33;1.33;;;;;15.74;78.96;101239.28;5080995;28;45523;-76
2021/09/20 02:04:03;;;;;;;;;1.00;1.00;;;;;15.77;79.10;101225.50;5081089;28;45274;-76
2021/09/20 02:06:28;;;;;;;;;4.33;3.33;;;;;15.82;79.44;101229.44;5079441;28;45310;-76
2021/09/20 02:08:54;;;;;;;;;2.33;2.33;;;;;15.85;78.91;101234.41;5080912;28;45313;-76
2021/09/20 02:11:22;;;;;;;;;3.33;3.33;;;;;15.89;78.58;101230.28;5080901;28;45259;-77
2021/09/20 02:13:48;;;;;;;;;3.67;2.67;;;;;15.89;79.51;101230.28;5080827;28;45243;-76
2021/09/20 02:16:14;;;;;;;;;2.67;2.67;;;;;15.95;78.86;101229.50;5079671;28;45262;-76
2021/09/20 02:18:40;;;;;;;;;3.00;3.00;;;;;15.97;78.77;101235.53;5080629;28;45302;-76
2021/09/20 02:21:09;;;;;;;;;2.33;2.33;;;;;15.98;78.69;101234.50;5080398;28;46041;-76
2021/09/20 02:23:36;;;;;;;;;1.67;1.67;;;;;15.95;78.28;101234.88;5079233;28;46020;-76
2021/09/20 02:26:03;;;;;;;;;1.00;1.00;;;;;15.92;77.83;101229.91;5079465;28;45704;-76
2021/09/20 02:28:30;;;;;;;;;3.33;2.33;;;;;15.89;78.02;101228.47;5080650;28;45310;-76
2021/09/20 02:30:55;;;;;;;;;1.00;1.00;;;;;15.88;78.65;101228.66;5066476;28;45382;-76
2021/09/20 02:33:21;;;;;;;;;1.33;1.33;;;;;15.89;78.55;101230.28;5060311;28;45366;-76
2021/09/20 02:35:46;;;;;;;;;3.33;2.33;;;;;15.88;78.64;101228.66;5059978;28;45693;-76
2021/09/20 02:38:12;;;;;;;;;3.33;3.33;;;;;15.85;78.42;101226.38;5058479;28;45755;-76
2021/09/20 02:40:37;;;;;;;;;3.00;3.00;;;;;15.80;78.76;101223.47;5060123;28;46144;-77
2021/09/20 02:43:03;;;;;;;;;3.00;3.00;;;;;15.82;78.72;101232.13;5059571;28;45324;-77
2021/09/20 02:45:29;;;;;;;;;4.67;4.00;;;;;15.82;78.25;101221.41;5060163;28;45346;-77
2021/09/20 02:47:54;;;;;;;;;3.00;3.00;;;;;15.80;78.96;101221.59;5060008;28;45350;-76
2021/09/20 02:50:19;;;;;;;;;3.00;3.00;;;;;15.83;78.58;101220.41;5058316;28;47277;-76
2021/09/20 02:52:45;;;;;;;;;3.33;3.33;;;;;15.85;78.70;101231.72;5058514;28;45860;-76
2021/09/20 02:55:11;;;;;;;;;2.00;2.00;;;;;15.79;78.59;101219.94;5058624;28;45319;-76
2021/09/20 02:57:37;;;;;;;;;4.00;4.00;;;;;15.78;78.55;101224.47;5059831;28;45509;-76
2021/09/20 03:00:04;;;;;;;;;4.67;3.67;;;;;15.77;78.97;101214.78;5059807;28;45239;-76
2021/09/20 03:02:30;;;;;;;;;4.67;4.67;;;;;15.79;78.71;101225.31;5059849;28;45330;-76
2021/09/20 03:04:55;;;;;;;;;7.00;6.33;;;;;15.74;78.99;101225.06;5058395;28;45327;-76
2021/09/20 03:07:20;;;;;;;;;5.33;5.33;;;;;15.73;79.25;101218.91;5059732;28;45414;-76
2021/09/20 03:09:46;;;;;;;;;7.67;6.00;;;;;15.75;78.60;101229.41;5059635;28;46302;-76
2021/09/20 03:12:11;;;;;;;;;7.33;7.00;;;;;15.73;79.34;101226.94;5059871;28;45321;-76
2021/09/20 03:14:38;;;;;;;;;6.33;6.33;;;;;15.76;79.06;101231.06;5059980;28;45840;-76
2021/09/20 03:17:03;;;;;;;;;4.67;4.67;;;;;15.76;79.07;101234.56;5059622;28;46364;-76
2021/09/20 03:19:29;;;;;;;;;4.00;4.00;;;;;15.79;79.14;101230.66;5059559;28;46644;-76
2021/09/20 03:21:54;;;;;;;;;8.00;7.00;;;;;15.83;79.37;101234.59;5059297;28;45323;-75
2021/09/20 03:24:19;;;;;;;;;8.00;6.00;;;;;15.83;78.97;101231.13;5059655;28;45733;-76
2021/09/20 03:26:45;;;;;;;;;7.67;6.00;;;;;15.85;78.92;101232.56;5059599;28;45223;-75
2021/09/20 03:29:11;;;;;;;;;7.00;6.00;;;;;15.84;79.12;101233.59;5059522;28;45243;-76
2021/09/20 03:31:36;;;;;;;;;4.67;4.67;;;;;15.84;79.03;101236.28;5078603;28;45235;-75
2021/09/20 03:34:02;;;;;;;;;6.33;6.33;;;;;15.82;79.53;101235.63;5079786;28;45214;-75
2021/09/20 03:36:27;;;;;;;;;8.00;6.67;;;;;15.82;79.27;101235.63;5079202;28;45225;-76
2021/09/20 03:38:53;;;;;;;;;8.33;8.33;;;;;15.80;79.15;101236.88;5079463;28;46257;-75
2021/09/20 03:41:18;;;;;;;;;7.33;6.33;;;;;15.82;79.63;101240.16;5078403;28;45266;-75
2021/09/20 03:43:44;;;;;;;;;9.00;8.00;;;;;15.82;78.82;101241.00;5079823;28;45550;-76
2021/09/20 03:46:10;;;;;;;;;6.00;6.00;;;;;15.77;79.48;101236.22;5077977;28;46940;-76
2021/09/20 03:48:35;;;;;;;;;8.67;7.67;;;;;15.76;79.19;101242.63;5079493;28;45416;-76
2021/09/20 03:51:02;;;;;;;;;6.00;6.00;;;;;15.74;78.96;101243.81;5077853;28;45445;-76
2021/09/20 03:53:28;;;;;;;;;6.00;6.00;;;;;15.72;79.85;101241.38;5078257;28;45381;-76
2021/09/20 03:55:53;;;;;;;;;9.33;9.00;;;;;15.68;79.54;101240.06;5080887;28;45337;-75
2021/09/20 03:58:18;;;;;;;;;7.00;6.00;;;;;15.71;79.50;101244.25;5081538;28;47480;-76
2021/09/20 04:00:44;;;;;;;;;9.67;9.33;;;;;15.70;79.02;101238.03;5083003;28;45382;-76
2021/09/20 04:03:09;;;;;;;;;12.67;12.67;;;;;15.70;79.89;101242.56;5083019;28;45279;-76
2021/09/20 04:05:35;;;;;;;;;11.00;11.00;;;;;15.71;79.46;101241.56;5082750;28;45275;-76
2021/09/20 04:08:01;;;;;;;;;10.33;10.33;;;;;15.71;79.68;101242.38;5082774;28;45334;-75
2021/09/20 04:10:27;;;;;;;;;14.00;14.00;;;;;15.76;79.54;101245.31;5082812;28;45204;-76
2021/09/20 04:12:52;;;;;;;;;13.33;12.00;;;;;15.79;79.21;101236.03;5081596;28;45293;-76
2021/09/20 04:15:17;;;;;;;;;17.00;15.33;;;;;15.82;79.02;101237.47;5082665;28;45249;-76
2021/09/20 04:17:43;;;;;;;;;11.67;11.00;;;;;15.85;79.67;101237.09;5082583;28;45271;-76
2021/09/20 04:20:09;;;;;;;;;12.67;12.00;;;;;15.88;79.18;101240.22;5081342;28;45523;-76
2021/09/20 04:22:34;;;;;;;;;14.00;13.67;;;;;15.93;79.82;101242.31;5081048;28;45326;-76
2021/09/20 04:24:59;;;;;;;;;20.00;20.00;;;;;15.94;79.53;101235.06;5082495;28;45566;-76
2021/09/20 04:27:25;;;;;;;;;19.00;19.00;;;;;15.94;79.18;101235.91;5082434;28;46192;-76
2021/09/20 04:29:50;;;;;;;;;18.00;18.00;;;;;15.94;79.31;101240.44;5077814;28;45457;-76
2021/09/20 04:32:16;;;;;;;;;11.33;10.33;;;;;15.97;79.35;101245.44;5062403;28;45349;-76
2021/09/20 04:34:41;;;;;;;;;14.67;14.67;;;;;15.97;79.13;101240.91;5060703;28;45968;-76
2021/09/20 04:37:07;;;;;;;;;13.00;13.00;;;;;15.99;79.35;101251.44;5061259;28;46036;-76
2021/09/20 04:39:32;;;;;;;;;14.33;14.00;;;;;15.98;79.19;101250.59;5060622;28;45332;-76
2021/09/20 04:41:58;;;;;;;;;16.67;13.00;;;;;15.97;79.05;101243.59;5062132;28;45350;-76
2021/09/20 04:44:23;;;;;;;;;14.67;13.67;;;;;15.99;78.99;101243.41;5061929;28;45450;-76
2021/09/20 04:46:49;;;;;;;;;14.00;13.00;;;;;15.95;79.11;101236.75;5061624;28;45866;-76
2021/09/20 04:49:15;;;;;;;;;13.00;10.67;;;;;15.98;79.43;101247.09;5061965;28;45386;-76
2021/09/20 04:51:40;;;;;;;;;12.00;11.67;;;;;16.00;79.16;101247.72;5061593;28;45248;-76
2021/09/20 04:54:06;;;;;;;;;10.33;10.00;;;;;15.98;78.87;101237.19;5060332;28;46183;-77
2021/09/20 04:56:31;;;;;;;;;15.33;13.00;;;;;16.01;79.62;101246.69;5061920;28;45406;-76
2021/09/20 04:58:57;;;;;;;;;11.00;11.00;;;;;16.00;78.93;101247.72;5061728;28;45220;-76
2021/09/20 05:01:22;;;;;;;;;9.67;9.67;;;;;16.01;79.30;101246.69;5060551;28;45181;-76
2021/09/20 05:03:48;;;;;;;;;11.00;10.67;;;;;16.04;79.32;101254.34;5061740;28;45189;-76
2021/09/20 05:06:13;;;;;;;;;10.33;10.33;;;;;16.07;79.79;101253.94;5061185;28;46190;-76
2021/09/20 05:08:38;;;;;;;;;12.00;10.33;;;;;16.08;79.51;101246.72;5061619;28;45208;-76
2021/09/20 05:11:04;;;;;;;;;16.67;15.00;;;;;16.12;78.88;101247.97;5061742;28;45315;-76
2021/09/20 05:13:29;;;;;;;;;14.00;14.00;;;;;16.12;79.25;101246.13;5061575;28;45295;-76
2021/09/20 05:15:54;;;;;;;;;17.00;15.67;;;;;16.13;79.09;101261.19;5061378;28;45244;-76
2021/09/20 05:18:20;;;;;;;;;20.33;17.00;;;;;16.17;78.85;101271.53;5061580;28;45543;-76
2021/09/20 05:20:45;;;;;;;;;13.00;12.33;;;;;16.19;79.33;101261.44;5061441;28;45284;-76
2021/09/20 05:23:11;;;;;;;;;13.00;13.00;;;;;16.16;78.92;101268.00;5061289;28;45260;-76
2021/09/20 05:25:37;;;;;;;;;12.00;10.67;;;;;16.18;79.50;101268.63;5061268;28;45410;-76
2021/09/20 05:28:03;;;;;;;;;17.33;17.33;;;;;16.19;79.05;101274.84;5061274;28;45320;-76
2021/09/20 05:30:28;;;;;;;;;16.67;15.33;;;;;16.22;79.24;101271.75;5071110;28;45337;-77
2021/09/20 05:32:54;;;;;;;;;19.33;19.33;;;;;16.24;79.13;101275.06;5081523;28;45288;-76
2021/09/20 05:35:19;;;;;;;;;19.00;17.67;;;;;16.24;79.03;101275.06;5081012;28;46005;-77
2021/09/20 05:37:46;;;;;;;;;15.33;15.33;;;;;16.24;78.97;101281.25;5081122;28;45298;-76
2021/09/20 05:40:13;;;;;;;;;14.00;14.00;;;;;16.26;78.91;101278.38;5080257;28;45193;-76
2021/09/20 05:42:38;;;;;;;;;16.33;16.33;;;;;16.24;79.00;101273.22;5081353;28;45226;-76
2021/09/20 05:45:05;;;;;;;;;16.00;15.33;;;;;16.19;78.75;101277.53;5081000;28;47130;-76
2021/09/20 05:47:31;;;;;;;;;15.00;14.00;;;;;16.17;78.85;101275.03;5081177;28;45422;-76
2021/09/20 05:49:56;;;;;;;;;17.67;17.67;;;;;16.14;79.10;101275.44;5081166;28;45406;-76
2021/09/20 05:52:22;;;;;;;;;17.33;15.33;;;;;16.12;78.95;101278.31;5081000;28;45322;-76
2021/09/20 05:54:49;;;;;;;;;17.67;17.67;;;;;16.12;78.76;101285.53;5079592;28;48036;-77
2021/09/20 05:57:15;;;;;;;;;16.00;15.67;;;;;16.11;79.28;101278.50;5060564;28;45303;-76
2021/09/20 05:59:40;;;;;;;;;19.33;18.00;;;;;16.07;79.47;101277.25;5060472;28;45682;-74
2021/09/20 06:02:06;;;;;;;;;22.33;18.67;;;;;16.07;79.37;101283.44;5042561;28;45939;-74
2021/09/20 06:04:32;;;;;;;;;20.33;18.00;;;;;16.08;79.57;101285.09;5059335;28;48439;-74
2021/09/20 06:06:57;;;;;;;;;17.00;14.67;;;;;16.10;79.21;101282.22;5060326;28;45202;-73
2021/09/20 06:09:23;;;;;;;;;18.00;18.00;;;;;16.12;79.76;101286.34;5060785;28;45788;-74
2021/09/20 06:11:48;;;;;;;;;17.33;17.00;;;;;16.13;79.31;101281.81;5060571;28;45415;-74
2021/09/20 06:14:14;;;;;;;;;13.67;13.67;;;;;16.22;79.38;101294.03;5060485;28;45272;-74
2021/09/20 06:16:39;;;;;;;;;14.00;14.00;;;;;16.26;79.01;101297.16;5060671;28;45246;-74
2021/09/20 06:19:04;;;;;;;;;17.33;14.67;;;;;16.26;79.32;101292.59;5058454;28;45162;-74
2021/09/20 06:21:30;;;;;;;;;16.67;16.00;;;;;16.32;79.00;101295.53;5060212;28;45487;-74
2021/09/20 06:23:55;;;;;;;;;14.33;14.00;;;;;16.33;79.33;101298.00;5060189;28;46043;-76
2021/09/20 06:26:21;;;;;;;;;17.67;15.33;;;;;16.37;78.87;101298.44;5060311;28;45287;-76
2021/09/20 06:28:46;;;;;;;;;12.67;12.67;;;;;16.38;78.89;101297.41;5050760;28;45267;-77
2021/09/20 06:31:11;;;;;;;;;15.00;15.00;;;;;16.40;79.21;101306.91;5049686;28;45384;-77
2021/09/20 06:33:37;;;;;;;;;16.33;15.67;;;;;16.43;79.23;101304.88;5049072;28;46383;-78
2021/09/20 06:36:03;;;;;;;;;15.00;12.67;;;;;16.46;78.95;101305.28;5045689;28;45509;-78
2021/09/20 06:38:28;;;;;;;;;17.67;16.33;;;;;16.49;79.40;101299.50;5050926;28;45339;-78
2021/09/20 06:40:54;;;;;;;;;13.00;12.67;;;;;16.55;79.41;101313.97;5055520;28;45308;-77
2021/09/20 06:43:20;;;;;;;;;16.00;15.67;;;;;16.58;79.13;101310.91;5052989;28;46320;-77
2021/09/20 06:45:46;;;;;;;;;16.33;15.33;;;;;16.60;79.06;101308.84;5048638;28;45253;-77
2021/09/20 06:48:11;;;;;;;;;15.33;15.33;;;;;16.64;78.89;101320.03;5050442;28;45412;-78
2021/09/20 06:50:36;;;;;;;;;17.00;16.67;;;;;16.66;78.78;101316.09;5055949;28;45255;-78
2021/09/20 06:53:02;;;;;;;;;15.67;15.67;;;;;16.70;78.72;101313.81;5058126;28;45719;-79
2021/09/20 06:55:28;;;;;;;;;15.00;14.67;;;;;16.73;78.49;101316.13;5057389;28;45398;-78
2021/09/20 06:57:59;;;;;;;;;16.67;16.67;;;;;16.77;78.87;101325.41;5058308;28;45577;-78
2021/09/20 07:00:28;;;;;;;;;13.67;12.67;;;;;16.86;78.80;101319.88;5058310;28;45442;-76
2021/09/20 07:02:54;;;;;;;;;18.00;16.33;;;;;16.90;78.54;101326.50;5058668;28;45290;-77
2021/09/20 07:05:20;;;;;;;;;18.33;18.33;;;;;16.96;78.76;101336.44;5057992;28;45347;-79
2021/09/20 07:07:45;;;;;;;;;15.67;13.67;;;;;17.00;78.33;101326.13;5058241;28;45295;-78
2021/09/20 07:10:12;;;;;;;;;16.00;14.67;;;;;17.02;78.48;101334.78;5055930;28;45343;-77
2021/09/20 07:12:38;;;;;;;;;18.33;15.67;;;;;17.00;78.35;101334.97;5045279;28;46184;-78
2021/09/20 07:15:05;;;;;;;;;16.67;16.67;;;;;17.05;78.20;101334.38;5038560;28;45375;-77
2021/09/20 07:17:30;;;;;;;;;13.67;13.00;;;;;17.06;78.20;101335.22;5058971;28;45592;-78
2021/09/20 07:19:56;;;;;;;;;16.00;15.00;;;;;17.06;78.00;101340.59;5059947;28;45238;-77
2021/09/20 07:22:22;;;;;;;;;15.00;15.00;;;;;17.07;78.30;101340.41;5060910;28;45317;-77
2021/09/20 07:24:47;;;;;;;;;13.33;13.00;;;;;17.13;78.00;101342.28;5060085;28;45224;-77
2021/09/20 07:27:13;;;;;;;;;14.00;14.00;;;;;17.16;78.37;101339.16;5059575;28;45390;-77
2021/09/20 07:29:39;;;;;;;;;14.33;14.33;;;;;17.17;78.26;101342.69;5061619;28;45421;-74
2021/09/20 07:32:05;;;;;;;;;15.00;13.67;;;;;17.19;78.32;101340.66;5061608;28;47326;-75
2021/09/20 07:34:30;;;;;;;;;13.67;13.67;;;;;17.22;78.20;101345.63;5062793;28;45411;-76
2021/09/20 07:36:56;;;;;;;;;17.00;15.67;;;;;17.20;78.23;101346.81;5062154;28;45792;-76
2021/09/20 07:39:21;;;;;;;;;16.67;16.33;;;;;17.21;78.07;101346.63;5062469;28;45335;-75
2021/09/20 07:41:46;;;;;;;;;12.67;12.67;;;;;17.22;78.38;101340.25;5062844;28;45304;-75
2021/09/20 07:44:12;;;;;;;;;15.67;15.00;;;;;17.20;78.04;101336.91;5063004;28;45343;-76
2021/09/20 07:46:37;;;;;;;;;11.67;11.00;;;;;17.19;78.25;101346.00;5061416;28;45397;-75
2021/09/20 07:49:03;;;;;;;;;15.00;15.00;;;;;17.17;78.16;101353.44;5062806;28;45256;-77
2021/09/20 07:51:28;;;;;;;;;16.33;14.00;;;;;17.16;78.48;101349.91;5060854;28;47048;-77
2021/09/20 07:53:54;;;;;;;;;16.67;15.00;;;;;17.19;78.52;101346.00;5062701;28;45337;-78
2021/09/20 07:56:19;;;;;;;;;21.67;18.67;;;;;17.20;78.03;101352.19;5062760;28;45299;-78
2021/09/20 07:58:45;;;;;;;;;18.67;16.00;;;;;17.24;78.01;101359.66;5062326;28;45532;-76
2021/09/20 08:01:10;;;;;;;;;14.67;14.67;;;;;17.24;78.13;101359.66;5063871;28;47429;-76
2021/09/20 08:03:35;;;;;;;;;18.33;17.00;;;;;17.25;78.28;101361.31;5066506;28;45276;-78
2021/09/20 08:06:01;;;;;;;;;16.00;15.33;;;;;17.27;78.50;101359.25;5062787;28;45220;-77
2021/09/20 08:08:26;;;;;;;;;16.00;16.00;;;;;17.28;77.65;101363.59;5060978;28;46540;-77
2021/09/20 08:10:52;;;;;;;;;17.33;15.00;;;;;17.31;78.22;101372.25;5056877;28;45259;-77
2021/09/20 08:13:18;;;;;;;;;19.00;19.00;;;;;17.33;78.49;101370.22;5040882;28;45857;-78
2021/09/20 08:15:45;;;;;;;;;14.00;13.67;;;;;17.37;78.45;101369.59;5042273;28;45297;-78
2021/09/20 08:18:11;;;;;;;;;16.67;16.67;;;;;17.41;78.15;101375.38;5048336;28;45469;-78
2021/09/20 08:20:38;;;;;;;;;14.33;13.33;;;;;17.44;77.57;101385.72;5050092;28;46958;-80
2021/09/20 08:23:04;;;;;;;;;19.33;18.67;;;;;17.43;77.92;101378.69;5048111;28;45465;-80
2021/09/20 08:25:31;;;;;;;;;15.33;14.00;;;;;17.51;78.00;101389.25;5050802;28;45450;-79
2021/09/20 08:27:58;;;;;;;;;18.00;17.00;;;;;17.52;77.92;101388.22;5054891;28;46188;-78
2021/09/20 08:30:23;;;;;;;;;24.00;20.00;;;;;17.53;77.29;101389.88;5070930;28;45306;-78
2021/09/20 08:32:49;;;;;;;;;21.00;21.00;;;;;17.52;77.63;101387.38;5082236;28;45264;-79
2021/09/20 08:35:15;;;;;;;;;16.67;16.67;;;;;17.52;78.12;101393.59;5070455;28;45434;-79
2021/09/20 08:37:40;;;;;;;;;19.67;17.67;;;;;17.57;78.34;101389.47;5060281;28;45368;-78
2021/09/20 08:40:06;;;;;;;;;22.00;20.67;;;;;17.62;77.94;101390.50;5058764;28;45475;-78
2021/09/20 08:42:35;;;;;;;;;20.00;20.00;;;;;17.69;78.29;101397.75;5053558;28;45407;-78
2021/09/20 08:45:04;;;;;;;;;20.00;19.67;;;;;17.72;77.65;101398.13;5058592;28;45731;-78
2021/09/20 08:47:30;;;;;;;;;22.00;17.67;;;;;17.76;77.79;101396.72;5056241;28;46074;-77
2021/09/20 08:49:57;;;;;;;;;18.33;18.33;;;;;17.84;77.32;101401.03;5052008;28;46128;-77
2021/09/20 08:52:23;;;;;;;;;19.67;18.33;;;;;17.91;77.49;101398.38;5051136;28;45375;-77
2021/09/20 08:54:51;;;;;;;;;19.33;18.33;;;;;17.92;77.35;101398.16;5051568;28;45315;-76
2021/09/20 08:57:18;;;;;;;;;17.00;17.00;;;;;18.01;77.41;101401.47;5055635;28;45271;-80
2021/09/20 08:59:43;;;;;;;;;22.33;20.33;;;;;18.07;77.40;101405.16;5060972;28;46176;-78
2021/09/20 09:02:14;;;;;;;;;19.33;19.33;;;;;18.14;77.52;101407.91;5061202;28;45231;-79
2021/09/20 09:04:40;;;;;;;;;22.67;22.67;;;;;18.13;77.06;101408.91;5061843;28;45307;-78
2021/09/20 09:07:06;;;;;;;;;18.33;18.33;;;;;18.19;77.12;101412.66;5061382;28;45500;-76
2021/09/20 09:09:34;;;;;;;;;21.33;19.00;;;;;18.20;76.77;101417.81;5061738;28;45259;-76
2021/09/20 09:12:21;;;;;;;;;18.67;17.67;;;;;18.17;76.27;101420.94;5060060;28;45244;-75
2021/09/20 09:14:51;;;;;;;;;18.67;18.67;;;;;18.19;76.32;101420.72;5061519;28;45326;-76
2021/09/20 09:17:21;;;;;;;;;23.00;21.33;;;;;18.18;76.77;101422.59;5061247;28;46021;-75
2021/09/20 09:19:53;;;;;;;;;21.00;19.00;;;;;18.17;76.30;101426.31;5061059;28;46211;-76
2021/09/20 09:22:19;;;;;;;;;17.67;17.67;;;;;18.18;76.71;101425.28;5061127;28;45255;-76
2021/09/20 09:25:01;;;;;;;;;23.00;20.33;;;;;18.21;76.65;101426.72;5061421;28;45251;-76
2021/09/20 09:27:28;;;;;;;;;17.33;16.00;;;;;18.21;77.07;101426.72;5059553;28;45370;-77
2021/09/20 09:30:07;;;;;;;;;19.67;19.67;;;;;18.28;77.04;101430.22;5062340;28;45419;-78
2021/09/20 09:32:32;;;;;;;;;19.00;19.00;;;;;18.32;76.90;101423.41;5079825;27;45658;-78
2021/09/20 09:35:03;;;;;;;;;19.00;17.67;;;;;18.38;76.76;101432.50;5050148;28;45355;-78
2021/09/20 09:37:28;;;;;;;;;27.00;25.67;;;;;18.43;76.98;101427.28;5055823;28;45455;-78
2021/09/20 09:40:14;;;;;;;;;20.00;17.00;;;;;18.50;76.36;101433.47;5060188;28;45262;-78
2021/09/20 09:42:40;;;;;;;;;17.67;17.67;;;;;18.52;76.83;101423.34;5050333;28;45307;-76
2021/09/20 09:45:17;;;;;;;;;16.67;16.67;;;;;18.57;76.25;101427.25;5048465;28;45414;-76
2021/09/20 09:47:42;;;;;;;;;16.67;16.67;;;;;18.62;76.30;101425.59;5048034;28;45568;-77
2021/09/20 09:50:23;;;;;;;;;20.33;18.00;;;;;18.70;75.98;101435.28;5047794;28;48170;-78
2021/09/20 09:52:52;;;;;;;;;18.67;18.33;;;;;18.72;76.01;101429.69;5051308;28;45469;-77
2021/09/20 09:55:19;;;;;;;;;20.00;19.67;;;;;18.77;75.82;101425.31;5060158;28;45300;-76
2021/09/20 09:57:45;;;;;;;;;21.33;20.67;;;;;18.82;75.72;101429.28;5059016;28;46579;-75
2021/09/20 10:00:14;;;;;;;;;16.67;16.67;;;;;18.83;75.55;101430.91;5060556;28;45255;-75
2021/09/20 10:02:44;;;;;;;;;17.00;16.67;;;;;18.85;75.10;101436.94;5058884;28;45809;-76
2021/09/20 10:05:13;;;;;;;;;15.33;15.00;;;;;18.84;75.31;101435.25;5060419;28;45378;-77
2021/09/20 10:07:45;;;;;;;;;14.33;14.00;;;;;18.85;75.12;101437.72;5060416;28;45394;-75
2021/09/20 10:10:19;;;;;;;;;15.67;14.67;;;;;18.82;75.30;101438.16;5059533;28;46100;-75
2021/09/20 10:12:46;;;;;;;;;16.67;15.00;;;;;18.82;74.94;101440.03;5059761;28;45426;-78
2021/09/20 10:15:16;;;;;;;;;11.33;11.33;;;;;18.79;75.23;101433.19;5059943;28;45173;-78
2021/09/20 10:17:42;;;;;;;;;17.67;16.67;;;;;18.79;74.80;101442.09;5058682;28;45402;-78
2021/09/20 10:20:14;;;;;;;;;17.00;16.00;;;;;18.74;75.01;101444.59;5059951;28;45427;-78
2021/09/20 10:22:41;;;;;;;;;15.33;15.33;;;;;18.73;74.91;101442.94;5058588;28;45691;-79
2021/09/20 10:25:09;;;;;;;;;16.00;15.00;;;;;18.72;75.31;101446.69;5060255;28;45331;-78
2021/09/20 10:27:34;;;;;;;;;17.67;15.33;;;;;18.69;75.70;101444.41;5060178;28;45410;-75
2021/09/20 10:30:15;;;;;;;;;15.00;15.00;;;;;18.75;75.71;101448.13;5059997;28;46265;-76
2021/09/20 10:32:44;;;;;;;;;14.67;14.67;;;;;18.74;75.45;101443.78;5060042;28;45354;-76
2021/09/20 10:35:34;;;;;;;;;14.67;14.67;;;;;18.75;75.86;101448.97;5059785;28;45426;-75
2021/09/20 10:37:59;;;;;;;;;16.33;15.33;;;;;18.82;76.39;101448.94;5052361;28;46223;-76
2021/09/20 10:40:25;;;;;;;;;17.33;15.67;;;;;18.84;75.46;101446.84;5059953;28;45538;-77
2021/09/20 10:43:00;;;;;;;;;17.67;15.67;;;;;18.89;75.68;101449.72;5060121;28;45197;-75
2021/09/20 10:45:36;;;;;;;;;17.00;17.00;;;;;18.92;76.02;101452.00;5059948;28;45375;-76
2021/09/20 10:48:14;;;;;;;;;12.67;12.33;;;;;18.98;75.31;101452.19;5058260;28;46322;-78
2021/09/20 10:51:17;;;;;;;;;15.67;15.00;;;;;18.98;75.33;101455.72;5057407;28;45589;-78
2021/09/20 10:53:43;;;;;;;;;16.00;14.33;;;;;18.94;76.00;101449.09;5059783;28;45357;-77
2021/09/20 10:56:14;;;;;;;;;17.00;17.00;;;;;18.99;75.26;101449.28;5060064;28;45315;-78
2021/09/20 10:58:54;;;;;;;;;15.33;15.33;;;;;19.05;74.52;101453.00;5059617;28;45307;-78
2021/09/20 11:01:19;;;;;;;;;18.00;16.67;;;;;19.10;74.91;101452.38;5059752;28;45592;-78
2021/09/20 11:03:52;;;;;;;;;18.67;15.33;;;;;19.16;74.50;101456.91;5056838;28;45510;-79
2021/09/20 11:06:31;;;;;;;;;13.00;11.00;;;;;19.18;74.21;101444.88;5058839;28;45398;-78
2021/09/20 11:09:01;;;;;;;;;20.00;16.67;;;;;19.26;74.73;101453.75;5059323;28;45363;-76
2021/09/20 11:11:42;;;;;;;;;17.00;16.00;;;;;19.28;74.13;101457.88;5057126;28;45487;-76